Time;durP1;ratioP1;P1;durP2;ratioP2;P2;SDS_P1;SDS_P2;PMS_P1;PMS_P2;Temp;Humidity;BMP_temperature;BMP_pressure;BME280_temperature;BME280_humidity;BME280_pressure;Samples;Min_cycle;Max_cycle;Signal;HPM_P1;HPM_P2
2023/07/02 00:01:57;;;;;;;12.18;1.45;;;;;;;16.61;88.89;99889.84;4916918;29;20118;-75
2023/07/02 00:05:00;;;;;;;5.32;1.55;;;;;;;16.60;84.75;99882.91;4916930;29;20107;-74
2023/07/02 00:08:03;;;;;;;2.92;1.33;;;;;;;16.52;82.19;99886.19;4916636;29;20509;-75
2023/07/02 00:11:07;;;;;;;6.15;1.83;;;;;;;16.61;85.38;99892.47;4916722;29;20047;-75
2023/07/02 00:14:10;;;;;;;6.55;1.48;;;;;;;16.66;84.88;99903.47;4916900;29;20414;-75
2023/07/02 00:17:13;;;;;;;5.95;1.90;;;;;;;16.62;84.74;99907.34;4916647;29;20107;-75
2023/07/02 00:20:17;;;;;;;5.65;2.13;;;;;;;16.60;87.86;99909.28;4916565;29;20513;-75
2023/07/02 00:23:21;;;;;;;5.80;1.70;;;;;;;16.50;89.48;99915.38;4916697;29;20514;-75
2023/07/02 00:26:25;;;;;;;7.50;1.90;;;;;;;16.51;88.94;99921.47;4916674;29;20047;-75
2023/07/02 00:29:28;;;;;;;6.38;1.85;;;;;;;16.42;90.29;99915.19;4916547;29;20565;-75
2023/07/02 00:32:31;;;;;;;10.15;1.80;;;;;;;16.39;90.10;99917.25;4915667;29;20471;-75
2023/07/02 00:35:35;;;;;;;4.88;1.60;;;;;;;16.24;91.89;99927.31;4916329;29;20051;-75
2023/07/02 00:38:38;;;;;;;6.28;1.85;;;;;;;16.17;93.10;99923.53;4911150;29;20139;-74
2023/07/02 00:41:42;;;;;;;7.00;2.13;;;;;;;16.20;92.05;99928.53;4904846;29;20055;-74
2023/07/02 00:44:45;;;;;;;4.07;1.60;;;;;;;16.06;92.19;99932.38;4911860;29;20079;-74
2023/07/02 00:47:49;;;;;;;8.00;2.05;;;;;;;16.08;91.93;99929.59;4904640;29;20046;-75
2023/07/02 00:50:52;;;;;;;4.72;1.60;;;;;;;16.08;91.22;99919.03;4904486;29;20047;-74
2023/07/02 00:53:57;;;;;;;5.95;2.13;;;;;;;16.12;91.16;99928.38;4904601;29;20454;-74
2023/07/02 00:57:03;;;;;;;4.45;1.30;;;;;;;16.11;91.22;99919.59;4916512;29;20134;-75
2023/07/02 01:00:07;;;;;;;8.90;1.85;;;;;;;16.06;91.49;99915.72;4916244;29;20051;-75
2023/07/02 01:03:11;;;;;;;6.28;1.73;;;;;;;16.05;91.42;99914.88;4916349;29;20055;-74
2023/07/02 01:06:15;;;;;;;7.97;1.90;;;;;;;16.01;91.33;99914.28;4916429;29;20055;-75
2023/07/02 01:09:18;;;;;;;6.30;1.70;;;;;;;15.91;91.80;99917.81;4904631;29;20055;-75
2023/07/02 01:12:22;;;;;;;8.13;2.00;;;;;;;15.90;91.42;99922.28;4916206;29;20042;-75
2023/07/02 01:15:26;;;;;;;5.35;1.83;;;;;;;15.87;90.68;99917.25;4916145;29;20047;-75
2023/07/02 01:18:30;;;;;;;6.55;2.03;;;;;;;15.83;90.54;99915.84;4904217;29;20044;-75
2023/07/02 01:21:33;;;;;;;5.20;2.22;;;;;;;15.80;90.35;99926.66;4918478;29;20062;-75
2023/07/02 01:24:39;;;;;;;9.50;2.00;;;;;;;15.71;91.13;99917.69;4907907;29;20047;-75
2023/07/02 01:27:42;;;;;;;8.77;1.80;;;;;;;15.61;91.25;99918.56;4908090;29;20104;-75
2023/07/02 01:30:45;;;;;;;6.30;2.13;;;;;;;15.49;91.11;99918.59;4919444;29;20091;-75
2023/07/02 01:33:49;;;;;;;3.67;1.30;;;;;;;15.38;91.56;99915.19;4919575;29;20505;-75
2023/07/02 01:36:53;;;;;;;9.05;1.90;;;;;;;15.46;91.95;99921.50;4919578;29;20046;-75
2023/07/02 01:39:56;;;;;;;8.15;1.85;;;;;;;15.44;91.81;99923.41;4919315;29;20405;-75
2023/07/02 01:42:59;;;;;;;6.22;1.42;;;;;;;15.37;91.42;99918.78;4919228;29;20055;-75
2023/07/02 01:46:03;;;;;;;4.53;1.80;;;;;;;15.26;92.61;99915.22;4919146;29;20067;-75
2023/07/02 01:49:06;;;;;;;4.57;1.70;;;;;;;15.27;92.38;99923.97;4919019;29;20115;-75
2023/07/02 01:52:09;;;;;;;6.22;2.33;;;;;;;15.13;92.90;99911.09;4918910;29;20213;-75
2023/07/02 01:55:13;;;;;;;7.22;1.80;;;;;;;14.95;93.61;99916.88;4918920;29;20586;-75
2023/07/02 01:58:16;;;;;;;9.52;1.88;;;;;;;14.99;93.59;99926.19;4918906;29;20071;-75
2023/07/02 02:01:19;;;;;;;4.85;1.70;;;;;;;14.95;93.14;99927.41;4907208;29;20596;-75
2023/07/02 02:04:23;;;;;;;7.22;1.65;;;;;;;14.88;93.34;99928.84;4907119;29;20099;-76
2023/07/02 02:07:26;;;;;;;8.63;1.60;;;;;;;14.91;93.15;99938.31;4907084;29;20090;-76
2023/07/02 02:10:29;;;;;;;7.07;2.00;;;;;;;14.71;94.47;99937.22;4918719;29;20063;-76
2023/07/02 02:13:32;;;;;;;5.40;1.90;;;;;;;14.77;93.69;99932.34;4907043;29;20099;-75
2023/07/02 02:16:36;;;;;;;12.68;1.88;;;;;;;14.81;92.68;99944.31;4918619;29;20063;-76
2023/07/02 02:19:39;;;;;;;8.40;2.08;;;;;;;14.85;92.01;99940.47;4918341;29;20050;-75
2023/07/02 02:22:43;;;;;;;6.28;2.30;;;;;;;14.87;90.79;99946.44;4918515;29;20107;-76
2023/07/02 02:25:46;;;;;;;6.18;2.10;;;;;;;14.85;90.40;99950.97;4918390;29;20422;-76
2023/07/02 02:28:49;;;;;;;4.28;2.13;;;;;;;14.98;89.61;99950.84;4896162;29;20122;-76
2023/07/02 02:31:52;;;;;;;5.68;2.28;;;;;;;15.07;88.13;99941.38;4905485;29;20100;-76
2023/07/02 02:34:57;;;;;;;10.18;3.10;;;;;;;14.82;86.99;99945.13;4906439;29;20124;-76
2023/07/02 02:38:03;;;;;;;12.40;2.80;;;;;;;14.86;86.90;99949.19;4918457;29;20067;-76
2023/07/02 02:41:08;;;;;;;11.40;3.75;;;;;;;14.73;85.89;99951.13;4895773;29;20168;-75
2023/07/02 02:44:15;;;;;;;7.55;3.17;;;;;;;14.64;85.94;99952.66;4906597;29;20131;-76
2023/07/02 02:47:18;;;;;;;9.55;3.80;;;;;;;14.67;85.63;99959.50;4918057;29;20091;-76
2023/07/02 02:50:22;;;;;;;8.40;4.07;;;;;;;14.69;85.27;99960.22;4918189;29;20047;-76
2023/07/02 02:53:25;;;;;;;9.70;3.92;;;;;;;14.71;84.42;99959.16;4918225;29;20054;-76
2023/07/02 02:56:28;;;;;;;8.15;3.88;;;;;;;14.90;84.32;99955.91;4906120;29;20123;-76
2023/07/02 02:59:32;;;;;;;8.70;4.15;;;;;;;15.06;83.35;99958.97;4916888;29;20184;-76
2023/07/02 03:02:35;;;;;;;11.85;5.25;;;;;;;15.15;82.58;99956.56;4917788;29;20418;-75
2023/07/02 03:05:39;;;;;;;10.18;4.10;;;;;;;15.22;82.66;99952.47;4906221;29;20447;-75
2023/07/02 03:08:42;;;;;;;8.80;4.03;;;;;;;15.24;83.54;99953.19;4917971;29;20145;-75
2023/07/02 03:11:47;;;;;;;11.55;4.07;;;;;;;15.29;85.85;99953.66;4905825;29;20082;-75
2023/07/02 03:14:54;;;;;;;11.95;4.10;;;;;;;15.25;86.62;99957.47;4916893;29;20405;-75
2023/07/02 03:17:57;;;;;;;11.88;4.75;;;;;;;15.27;87.09;99960.84;4905932;29;20576;-75
2023/07/02 03:21:00;;;;;;;10.25;4.90;;;;;;;15.27;85.10;99966.94;4917471;29;20047;-75
2023/07/02 03:24:04;;;;;;;12.38;4.85;;;;;;;15.27;86.75;99961.66;4917585;29;20566;-75
2023/07/02 03:27:07;;;;;;;11.15;5.25;;;;;;;15.30;88.34;99960.59;4917373;29;20518;-75
2023/07/02 03:30:11;;;;;;;8.73;4.60;;;;;;;15.33;88.35;99966.44;4917244;29;20112;-75
2023/07/02 03:33:14;;;;;;;12.60;5.15;;;;;;;15.30;89.15;99964.06;4917445;29;20487;-75
2023/07/02 03:36:17;;;;;;;8.82;4.57;;;;;;;15.28;89.50;99968.63;4917487;29;20059;-75
2023/07/02 03:39:20;;;;;;;;;;;;;;;15.24;90.30;99971.63;4917535;29;20054;-75
2023/07/02 03:42:23;;;;;;;13.18;5.43;;;;;;;15.19;90.68;99976.41;4917140;29;19930;-76
2023/07/02 03:45:26;;;;;;;11.02;4.95;;;;;;;15.18;91.05;99964.22;4917049;29;20136;-76
2023/07/02 03:48:30;;;;;;;13.23;6.35;;;;;;;15.23;88.01;99972.59;4917182;29;20046;-76
2023/07/02 03:51:33;;;;;;;;;;;;;;;15.23;89.67;99968.16;4917070;29;20063;-76
2023/07/02 03:54:36;;;;;;;9.57;5.97;;;;;;;15.20;89.21;99970.19;4916947;29;19969;-76
2023/07/02 03:57:39;;;;;;;9.85;5.90;;;;;;;15.15;89.38;99983.72;4916882;29;20509;-75
2023/07/02 04:00:44;;;;;;;11.50;6.00;;;;;;;15.17;89.90;99975.72;4916879;29;20141;-76
2023/07/02 04:03:52;;;;;;;13.73;6.90;;;;;;;15.19;88.60;99979.03;4916793;29;20562;-75
2023/07/02 04:06:54;;;;;;;12.95;7.05;;;;;;;15.11;90.25;99977.03;4916739;29;20054;-75
2023/07/02 04:09:58;;;;;;;12.93;5.97;;;;;;;15.16;89.95;99980.16;4916742;29;20047;-75
2023/07/02 04:13:01;;;;;;;11.35;6.63;;;;;;;15.11;90.15;99985.75;4916698;29;20528;-75
2023/07/02 04:16:04;;;;;;;;;;;;;;;15.17;90.44;99991.50;4905582;29;20059;-76
2023/07/02 04:19:07;;;;;;;;;;;;;;;15.21;88.57;99996.41;4915990;29;20440;-75
2023/07/02 04:22:10;;;;;;;12.82;6.97;;;;;;;15.17;90.25;100007.31;4915373;29;19922;-75
2023/07/02 04:25:15;;;;;;;15.88;6.78;;;;;;;15.16;90.81;100005.66;4916537;29;20123;-75
2023/07/02 04:28:18;;;;;;;17.73;7.32;;;;;;;15.15;90.64;100019.75;4916487;29;20123;-75
2023/07/02 04:31:22;;;;;;;12.95;7.38;;;;;;;15.21;91.38;100016.63;4916481;29;20051;-75
2023/07/02 04:34:25;;;;;;;11.00;7.63;;;;;;;15.31;90.03;100023.66;4916413;29;20092;-76
2023/07/02 04:37:28;;;;;;;12.75;6.95;;;;;;;15.32;90.25;100029.81;4916422;29;20051;-75
2023/07/02 04:40:32;;;;;;;13.93;8.52;;;;;;;15.36;90.26;100028.59;4904732;29;20122;-75
2023/07/02 04:43:35;;;;;;;14.57;7.80;;;;;;;15.40;89.29;100035.28;4916396;29;20051;-75
2023/07/02 04:46:39;;;;;;;17.55;8.20;;;;;;;15.42;88.48;100032.53;4916631;29;20104;-75
2023/07/02 04:49:42;;;;;;;11.85;8.00;;;;;;;15.43;88.44;100035.03;4916259;29;20574;-75
2023/07/02 04:52:45;;;;;;;14.48;8.35;;;;;;;15.45;89.54;100034.94;4904420;29;20182;-75
2023/07/02 04:55:49;;;;;;;14.55;7.45;;;;;;;15.50;89.14;100025.66;4917791;29;20051;-75
2023/07/02 04:58:52;;;;;;;13.35;9.00;;;;;;;15.54;90.67;100026.28;4919922;29;20071;-76
2023/07/02 05:01:55;;;;;;;15.23;8.75;;;;;;;15.54;89.05;100035.03;4919963;29;20504;-76
2023/07/02 05:04:59;;;;;;;15.55;8.57;;;;;;;15.63;89.35;100037.84;4908233;29;20051;-76
2023/07/02 05:08:04;;;;;;;12.98;8.40;;;;;;;15.63;90.35;100030.78;4919821;29;20083;-76
2023/07/02 05:11:07;;;;;;;17.85;8.65;;;;;;;15.66;88.10;100034.97;4919890;29;20095;-76
2023/07/02 05:14:10;;;;;;;13.48;8.25;;;;;;;15.77;86.54;100037.63;4919722;29;20107;-76
2023/07/02 05:17:17;;;;;;;13.85;8.80;;;;;;;15.86;87.02;100036.88;4919681;29;20111;-76
2023/07/02 05:20:21;;;;;;;17.05;8.82;;;;;;;15.85;87.63;100039.59;4919567;29;20107;-76
2023/07/02 05:23:24;;;;;;;16.08;10.05;;;;;;;15.85;82.36;100035.16;4919591;29;20107;-75
2023/07/02 05:26:27;;;;;;;18.73;9.65;;;;;;;16.00;82.28;100038.34;4919536;29;20070;-75
2023/07/02 05:29:31;;;;;;;17.75;10.15;;;;;;;16.03;84.88;100038.94;4919516;29;20418;-75
2023/07/02 05:32:34;;;;;;;17.85;10.32;;;;;;;16.09;83.02;100044.69;4919287;29;20050;-75
2023/07/02 05:35:37;;;;;;;18.73;9.43;;;;;;;16.19;81.62;100035.84;4919580;29;20410;-75
2023/07/02 05:38:41;;;;;;;16.60;10.27;;;;;;;16.28;81.10;100042.19;4919201;29;20066;-75
2023/07/02 05:41:44;;;;;;;19.85;10.68;;;;;;;16.36;79.40;100045.00;4919549;29;20047;-75
2023/07/02 05:44:47;;;;;;;17.42;9.95;;;;;;;16.34;77.84;100054.84;4919210;29;20059;-75
2023/07/02 05:47:51;;;;;;;16.75;10.93;;;;;;;16.41;75.22;100053.38;4919367;29;20410;-75
2023/07/02 05:50:55;;;;;;;17.48;10.35;;;;;;;16.50;75.25;100062.31;4918850;29;20067;-75
2023/07/02 05:53:58;;;;;;;19.13;10.85;;;;;;;16.41;72.73;100061.28;4919030;29;20108;-75
2023/07/02 05:57:01;;;;;;;21.77;10.73;;;;;;;16.42;72.09;100067.41;4919038;29;20399;-76
2023/07/02 06:00:06;;;;;;;16.38;10.27;;;;;;;16.48;73.65;100075.63;4918802;29;20063;-76
2023/07/02 06:03:21;;;;;;;18.58;11.15;;;;;;;16.57;73.60;100067.91;4919048;29;20138;-76
2023/07/02 06:06:24;;;;;;;18.13;11.75;;;;;;;16.57;72.44;100074.03;4918474;29;20051;-76
2023/07/02 06:09:28;;;;;;;15.23;11.18;;;;;;;16.63;72.17;100077.97;4918712;29;20043;-76
2023/07/02 06:12:31;;;;;;;14.57;10.73;;;;;;;16.56;72.15;100093.47;4918682;29;20051;-76
2023/07/02 06:15:34;;;;;;;19.08;11.82;;;;;;;16.67;71.59;100087.28;4918603;29;20055;-75
2023/07/02 06:18:37;;;;;;;25.33;13.40;;;;;;;16.40;71.82;100088.66;4918494;29;20051;-76
2023/07/02 06:21:41;;;;;;;20.90;13.30;;;;;;;16.41;71.58;100085.03;4918574;29;20091;-75
2023/07/02 06:24:44;;;;;;;19.60;11.50;;;;;;;16.53;71.33;100088.47;4918465;29;20482;-76
2023/07/02 06:27:47;;;;;;;20.65;12.40;;;;;;;16.52;71.14;100090.22;4918669;29;20054;-76
2023/07/02 06:30:50;;;;;;;20.35;11.98;;;;;;;16.39;71.74;100081.69;4918406;29;20106;-76
2023/07/02 06:33:54;;;;;;;19.00;11.48;;;;;;;16.19;71.55;100085.16;4918241;29;20517;-76
2023/07/02 06:36:57;;;;;;;17.70;12.02;;;;;;;16.19;71.71;100090.41;4918276;29;20426;-76
2023/07/02 06:40:01;;;;;;;18.52;12.07;;;;;;;16.28;72.13;100095.78;4906392;29;20095;-76
2023/07/02 06:43:04;;;;;;;24.50;12.82;;;;;;;16.38;72.18;100090.56;4918172;29;20413;-76
2023/07/02 06:46:10;;;;;;;22.15;13.57;;;;;;;16.32;72.18;100085.78;4918364;29;20074;-76
2023/07/02 06:49:38;;;;;;;20.90;12.57;;;;;;;16.42;72.04;100091.97;4917848;29;20070;-76
2023/07/02 06:52:41;;;;;;;21.00;13.23;;;;;;;16.51;70.97;100096.50;4917719;29;20058;-76
2023/07/02 06:55:44;;;;;;;21.92;13.18;;;;;;;16.57;71.01;100094.31;4918134;29;20175;-76
2023/07/02 06:58:48;;;;;;;19.30;12.93;;;;;;;16.73;71.65;100105.25;4917792;29;20048;-75
2023/07/02 07:01:51;;;;;;;23.23;13.07;;;;;;;16.78;70.12;100103.06;4917768;29;20523;-75
2023/07/02 07:04:54;;;;;;;18.00;12.32;;;;;;;16.91;70.60;100106.34;4917496;29;20513;-76
2023/07/02 07:08:00;;;;;;;21.63;12.00;;;;;;;16.98;69.81;100104.03;4917723;29;20047;-75
2023/07/02 07:11:03;;;;;;;18.17;12.07;;;;;;;16.98;68.87;100105.84;4917670;29;20099;-75
2023/07/02 07:14:07;;;;;;;24.75;13.40;;;;;;;16.82;69.04;100115.06;4917579;29;20099;-78
2023/07/02 07:17:10;;;;;;;18.70;12.88;;;;;;;16.76;69.38;100114.75;4917433;29;20063;-75
2023/07/02 07:20:14;;;;;;;20.90;12.90;;;;;;;16.80;70.20;100121.44;4917295;29;20529;-70
2023/07/02 07:23:17;;;;;;;25.40;15.10;;;;;;;16.96;69.48;100106.78;4917463;29;20043;-70
2023/07/02 07:26:20;;;;;;;20.20;13.23;;;;;;;17.14;68.41;100108.81;4917371;29;20176;-70
2023/07/02 07:29:24;;;;;;;24.35;14.70;;;;;;;17.27;68.34;100109.44;4905563;29;20047;-70
2023/07/02 07:32:28;;;;;;;21.08;14.02;;;;;;;17.33;67.13;100105.44;4905859;29;20058;-70
2023/07/02 07:35:32;;;;;;;18.92;13.20;;;;;;;17.35;66.45;100106.94;4917297;29;20047;-70
2023/07/02 07:38:35;;;;;;;22.55;14.07;;;;;;;17.35;66.43;100111.41;4917098;29;20121;-71
2023/07/02 07:41:39;;;;;;;21.85;13.63;;;;;;;17.53;66.28;100119.53;4917492;29;20521;-70
2023/07/02 07:44:45;;;;;;;18.98;12.23;;;;;;;17.64;66.16;100116.75;4917364;29;20565;-70
2023/07/02 07:47:48;;;;;;;19.17;13.68;;;;;;;17.70;66.07;100110.94;4917023;29;20108;-70
2023/07/02 07:50:52;;;;;;;19.35;14.00;;;;;;;17.74;65.72;100117.66;4916715;29;20095;-70
2023/07/02 07:53:56;;;;;;;23.13;14.20;;;;;;;17.54;65.06;100115.91;4915205;29;20123;-76
2023/07/02 07:56:59;;;;;;;19.83;12.88;;;;;;;17.53;65.59;100104.50;4916364;29;20090;-75
2023/07/02 08:00:05;;;;;;;22.98;12.90;;;;;;;17.61;65.84;100117.03;4916053;29;20046;-75
2023/07/02 08:03:19;;;;;;;22.75;13.07;;;;;;;17.60;65.10;100123.31;4916741;29;20131;-75
2023/07/02 08:06:27;;;;;;;21.77;13.10;;;;;;;17.73;65.02;100121.25;4916784;29;20082;-75
2023/07/02 08:09:30;;;;;;;27.67;14.10;;;;;;;17.75;63.90;100121.94;4916670;29;20043;-75
2023/07/02 08:12:34;;;;;;;21.65;13.18;;;;;;;17.53;63.90;100114.25;4916636;29;20060;-74
2023/07/02 08:15:39;;;;;;;19.35;14.07;;;;;;;17.76;65.46;100120.97;4916728;29;20078;-73
2023/07/02 08:18:43;;;;;;;20.13;13.00;;;;;;;17.91;64.34;100118.81;4904362;29;20099;-74
2023/07/02 08:21:47;;;;;;;22.88;14.82;;;;;;;17.90;64.09;100122.44;4915718;29;20142;-73
2023/07/02 08:24:50;;;;;;;19.67;12.63;;;;;;;17.99;63.63;100118.94;4915260;29;20179;-75
2023/07/02 08:27:54;;;;;;;23.08;13.05;;;;;;;18.13;63.30;100129.13;4915288;29;20418;-71
2023/07/02 08:31:35;;;;;;;19.05;12.57;;;;;;;18.13;62.83;100125.66;4907108;29;20525;-75
2023/07/02 08:34:38;;;;;;;19.60;12.07;;;;;;;18.05;62.90;100133.44;4920384;29;20043;-75
2023/07/02 08:37:41;;;;;;;20.23;13.40;;;;;;;18.14;62.71;100127.31;4920342;29;20200;-75
2023/07/02 08:40:44;;;;;;;18.92;12.80;;;;;;;18.08;63.30;100126.06;4920335;29;20086;-74
2023/07/02 08:43:48;;;;;;;21.00;12.40;;;;;;;18.30;62.98;100130.25;4920110;29;20088;-73
2023/07/02 08:46:55;;;;;;;16.85;12.38;;;;;;;18.29;62.85;100118.00;4919690;29;20165;-73
2023/07/02 08:49:58;;;;;;;19.55;13.27;;;;;;;18.50;62.39;100120.47;4919551;29;20517;-75
2023/07/02 08:53:01;;;;;;;20.77;13.02;;;;;;;18.34;61.59;100125.50;4919303;29;20067;-75
2023/07/02 08:56:05;;;;;;;20.17;12.50;;;;;;;18.29;62.29;100128.59;4920007;29;20516;-74
2023/07/02 08:59:09;;;;;;;19.58;12.63;;;;;;;18.24;62.80;100140.56;4920369;29;20127;-75
2023/07/02 09:02:12;;;;;;;22.13;12.35;;;;;;;18.18;62.26;100136.66;4910308;29;20336;-74
2023/07/02 09:05:16;;;;;;;19.50;12.77;;;;;;;18.39;61.67;100133.88;4918516;29;20079;-74
2023/07/02 09:08:24;;;;;;;18.27;12.50;;;;;;;18.51;61.78;100137.22;4918314;29;20104;-74
2023/07/02 09:11:27;;;;;;;22.30;12.98;;;;;;;18.47;62.58;100151.69;4917980;29;20107;-75
2023/07/02 09:14:31;;;;;;;20.25;14.07;;;;;;;18.43;62.68;100143.19;4918498;29;20116;-74
2023/07/02 09:17:36;;;;;;;23.25;12.20;;;;;;;18.23;62.79;100147.66;4919088;29;20470;-75
2023/07/02 09:20:40;;;;;;;22.25;14.55;;;;;;;18.34;63.03;100147.50;4919135;29;20128;-75
2023/07/02 09:23:43;;;;;;;19.48;12.05;;;;;;;18.48;61.68;100142.78;4919215;29;20047;-73
2023/07/02 09:26:53;;;;;;;19.40;12.30;;;;;;;18.68;61.62;100148.91;4919730;29;20083;-74
2023/07/02 09:30:05;;;;;;;15.07;11.52;;;;;;;18.70;60.68;100150.44;4912053;29;20035;-75
2023/07/02 09:33:08;;;;;;;16.15;12.15;;;;;;;18.66;60.93;100148.19;4900493;29;20411;-74
2023/07/02 09:36:12;;;;;;;17.73;11.57;;;;;;;18.64;60.67;100144.88;4900773;29;20055;-74
2023/07/02 09:39:22;;;;;;;17.92;12.80;;;;;;;18.76;60.63;100157.00;4900341;29;20051;-73
2023/07/02 09:42:26;;;;;;;18.38;11.82;;;;;;;18.71;58.83;100149.44;4893211;29;20052;-74
2023/07/02 09:45:29;;;;;;;17.02;11.48;;;;;;;18.87;58.60;100140.13;4919229;29;20482;-74
2023/07/02 09:48:35;;;;;;;25.08;12.32;;;;;;;19.14;57.06;100145.47;4919140;29;20509;-74
2023/07/02 09:51:39;;;;;;;18.05;11.93;;;;;;;19.35;56.89;100136.47;4918757;29;20063;-74
2023/07/02 09:54:45;;;;;;;18.67;12.30;;;;;;;19.42;55.67;100140.19;4918647;29;20470;-76
2023/07/02 09:57:48;;;;;;;18.77;11.63;;;;;;;19.61;55.65;100137.44;4918687;29;20102;-75
2023/07/02 10:00:52;;;;;;;17.88;11.73;;;;;;;19.63;54.44;100140.81;4918591;29;20099;-76
2023/07/02 10:03:55;;;;;;;17.92;11.63;;;;;;;19.58;53.46;100131.63;4918632;29;20095;-73
2023/07/02 10:07:01;;;;;;;18.38;11.43;;;;;;;19.50;53.50;100145.63;4918781;29;20414;-75
2023/07/02 10:10:06;;;;;;;15.35;10.00;;;;;;;19.44;54.25;100154.16;4918211;29;20100;-74
2023/07/02 10:13:10;;;;;;;16.05;11.32;;;;;;;19.51;53.97;100145.47;4917498;29;20051;-77
2023/07/02 10:16:14;;;;;;;15.63;10.35;;;;;;;19.65;51.66;100138.84;4918457;29;20096;-79
2023/07/02 10:19:21;;;;;;;16.45;10.80;;;;;;;19.93;52.53;100137.00;4918305;29;20047;-74
2023/07/02 10:22:27;;;;;;;14.73;10.30;;;;;;;20.15;51.08;100135.75;4918219;29;20090;-75
2023/07/02 10:25:34;;;;;;;18.42;11.85;;;;;;;20.35;51.47;100124.97;4917173;29;20095;-75
2023/07/02 10:28:37;;;;;;;16.45;10.82;;;;;;;20.59;51.54;100135.81;4918265;29;20124;-74
2023/07/02 10:31:49;;;;;;;17.55;11.90;;;;;;;20.11;50.37;100129.06;4906493;29;20051;-75
2023/07/02 10:34:53;;;;;;;16.45;10.85;;;;;;;20.05;50.82;100127.03;4918068;29;20522;-76
2023/07/02 10:37:57;;;;;;;15.55;9.98;;;;;;;20.04;50.57;100121.84;4918239;29;20426;-76
2023/07/02 10:41:00;;;;;;;17.30;10.93;;;;;;;19.93;50.50;100128.22;4918373;29;20131;-77
2023/07/02 10:44:09;;;;;;;17.58;10.95;;;;;;;20.08;51.38;100141.81;4918478;29;20074;-77
2023/07/02 10:47:12;;;;;;;17.17;11.25;;;;;;;20.07;50.95;100135.69;4918047;29;20104;-76
2023/07/02 10:50:19;;;;;;;14.27;10.35;;;;;;;20.27;50.28;100119.59;4906160;29;20046;-76
2023/07/02 10:53:24;;;;;;;16.85;10.70;;;;;;;20.48;48.46;100135.19;4917018;29;20160;-77
2023/07/02 10:56:28;;;;;;;16.67;11.20;;;;;;;20.72;49.86;100132.75;4917936;29;20071;-77
2023/07/02 10:59:31;;;;;;;16.50;11.90;;;;;;;20.80;48.57;100126.66;4917765;29;20050;-76
2023/07/02 11:02:36;;;;;;;16.95;11.00;;;;;;;20.48;49.78;100130.72;4906081;29;20051;-76
2023/07/02 11:05:42;;;;;;;18.73;11.82;;;;;;;20.33;50.13;100140.22;4917721;29;20087;-77
2023/07/02 11:08:48;;;;;;;15.93;10.73;;;;;;;20.37;49.44;100142.41;4917790;29;20103;-70
2023/07/02 11:11:52;;;;;;;17.17;11.40;;;;;;;20.40;49.39;100143.94;4917548;29;20055;-74
2023/07/02 11:15:06;;;;;;;15.07;10.95;;;;;;;20.57;49.55;100134.31;4917515;29;20165;-75
2023/07/02 11:18:22;;;;;;;21.98;12.88;;;;;;;20.46;49.42;100124.72;4917290;29;20112;-76
2023/07/02 11:21:25;;;;;;;17.55;11.27;;;;;;;20.61;47.75;100131.19;4917430;29;20046;-77
2023/07/02 11:24:36;;;;;;;16.17;11.25;;;;;;;20.24;46.61;100143.78;4917377;29;20043;-76
2023/07/02 11:27:40;;;;;;;17.60;10.70;;;;;;;20.33;46.39;100143.72;4917131;29;20123;-75
2023/07/02 11:30:50;;;;;;;15.75;10.52;;;;;;;20.51;48.06;100124.25;4917205;29;20050;-75
2023/07/02 11:33:58;;;;;;;18.27;10.68;;;;;;;20.53;46.51;100133.78;4906069;29;20103;-74
2023/07/02 11:37:02;;;;;;;15.90;10.63;;;;;;;20.51;46.51;100125.13;4917164;29;20043;-75
2023/07/02 11:40:06;;;;;;;15.18;9.68;;;;;;;20.75;45.90;100139.59;4917028;29;20051;-75
2023/07/02 11:43:09;;;;;;;14.55;10.43;;;;;;;20.91;44.90;100126.41;4917378;29;20558;-74
2023/07/02 11:46:13;;;;;;;16.00;10.30;;;;;;;20.69;45.90;100122.44;4916944;29;20530;-74
2023/07/02 11:49:16;;;;;;;17.60;10.82;;;;;;;20.73;45.30;100129.09;4917088;29;20407;-76
2023/07/02 11:52:23;;;;;;;20.92;11.07;;;;;;;20.87;45.03;100123.25;4916800;29;20095;-75
2023/07/02 11:55:26;;;;;;;13.45;9.60;;;;;;;21.19;44.57;100119.09;4916923;29;20509;-75
2023/07/02 11:58:29;;;;;;;16.02;10.95;;;;;;;21.43;43.46;100121.06;4916673;29;20051;-74
2023/07/02 12:01:34;;;;;;;16.92;10.85;;;;;;;21.35;44.04;100132.50;4916777;29;20086;-74
2023/07/02 12:04:38;;;;;;;16.80;11.38;;;;;;;21.46;44.05;100135.88;4916537;29;20060;-73
2023/07/02 12:07:42;;;;;;;17.33;11.32;;;;;;;21.44;44.74;100129.84;4916617;29;20111;-74
2023/07/02 12:10:45;;;;;;;18.50;11.40;;;;;;;21.18;44.33;100144.00;4916674;29;20125;-74
2023/07/02 12:13:48;;;;;;;19.15;11.40;;;;;;;20.79;44.98;100143.59;4916625;29;20047;-74
2023/07/02 12:16:52;;;;;;;17.70;12.18;;;;;;;20.93;45.32;100156.34;4905321;29;20095;-74
2023/07/02 12:19:56;;;;;;;18.63;11.60;;;;;;;20.99;45.46;100161.00;4916205;29;20063;-75
2023/07/02 12:23:01;;;;;;;13.88;10.07;;;;;;;21.22;44.27;100139.19;4916413;29;20119;-75
2023/07/02 12:26:33;;;;;;;15.30;10.95;;;;;;;21.34;44.11;100143.25;4915947;29;20055;-75
2023/07/02 12:29:37;;;;;;;16.55;12.18;;;;;;;21.23;44.56;100162.97;4916247;29;20116;-75
2023/07/02 12:33:31;;;;;;;20.42;11.63;;;;;;;20.90;45.94;100138.03;4915923;29;20048;-75
2023/07/02 12:36:34;;;;;;;16.35;11.38;;;;;;;20.98;44.67;100142.56;4916539;29;20055;-74
2023/07/02 12:39:38;;;;;;;17.42;11.98;;;;;;;20.96;45.40;100158.66;4916133;29;20481;-70
2023/07/02 12:42:42;;;;;;;19.17;12.07;;;;;;;21.05;45.95;100159.53;4916269;29;20505;-73
2023/07/02 12:45:46;;;;;;;16.50;11.70;;;;;;;21.53;45.26;100143.03;4916192;29;20043;-75
2023/07/02 12:48:50;;;;;;;18.45;12.00;;;;;;;21.73;43.86;100148.09;4915969;29;20141;-81
2023/07/02 12:52:25;;;;;;;17.73;12.05;;;;;;;21.31;43.34;100155.06;4915836;29;20059;-73
2023/07/02 12:55:28;;;;;;;22.88;12.27;;;;;;;21.01;44.11;100159.03;4916089;29;20091;-76
2023/07/02 12:58:32;;;;;;;19.27;12.07;;;;;;;20.98;44.53;100158.50;4897204;29;20044;-76
2023/07/02 13:01:35;;;;;;;17.48;12.18;;;;;;;20.93;44.97;100155.47;4897276;29;20149;-74
2023/07/02 13:04:39;;;;;;;19.00;12.85;;;;;;;21.24;44.80;100161.16;4897365;29;20136;-75
2023/07/02 13:07:44;;;;;;;20.75;12.32;;;;;;;21.59;44.29;100153.03;4886210;29;20050;-74
2023/07/02 13:10:47;;;;;;;22.35;13.75;;;;;;;22.02;44.37;100153.84;4897525;29;20063;-75
2023/07/02 13:13:51;;;;;;;22.33;14.05;;;;;;;22.02;42.74;100169.81;4897309;29;20047;-75
2023/07/02 13:16:54;;;;;;;19.67;11.55;;;;;;;22.24;41.44;100157.75;4898684;29;20140;-74
2023/07/02 13:19:57;;;;;;;18.15;12.73;;;;;;;22.47;41.19;100162.41;4900730;29;20051;-72
2023/07/02 13:23:01;;;;;;;18.05;12.68;;;;;;;22.04;41.60;100151.81;4900707;29;20071;-73
2023/07/02 13:26:05;;;;;;;23.77;13.57;;;;;;;21.50;43.71;100154.00;4900740;29;20048;-73
2023/07/02 13:29:09;;;;;;;19.38;11.80;;;;;;;21.93;43.25;100153.97;4900613;29;20068;-72
2023/07/02 13:32:13;;;;;;;20.05;13.75;;;;;;;22.03;43.18;100155.50;4900327;29;20051;-75
2023/07/02 13:35:16;;;;;;;21.85;13.32;;;;;;;21.85;43.96;100157.44;4900518;29;20514;-72
2023/07/02 13:38:19;;;;;;;18.65;12.93;;;;;;;21.59;43.98;100161.00;4900673;29;20071;-72
2023/07/02 13:41:24;;;;;;;18.85;12.98;;;;;;;21.67;44.04;100160.22;4888833;29;20052;-72
2023/07/02 13:44:27;;;;;;;17.45;12.63;;;;;;;22.04;42.56;100158.97;4900069;29;20047;-73
2023/07/02 13:47:31;;;;;;;22.77;13.73;;;;;;;22.58;42.48;100148.75;4900264;29;20100;-73
2023/07/02 13:50:36;;;;;;;21.38;14.38;;;;;;;23.05;41.02;100141.91;4900087;29;20071;-72
2023/07/02 13:53:41;;;;;;;19.80;13.23;;;;;;;22.65;42.25;100148.91;4900296;29;20108;-73
2023/07/02 13:56:45;;;;;;;19.58;13.05;;;;;;;22.56;41.78;100144.56;4900112;29;20060;-72
2023/07/02 13:59:53;;;;;;;22.33;13.50;;;;;;;22.30;42.94;100142.91;4900036;29;20579;-72
2023/07/02 14:02:56;;;;;;;20.67;13.50;;;;;;;21.78;43.29;100148.44;4885591;29;20072;-72
2023/07/02 14:05:59;;;;;;;20.92;14.48;;;;;;;21.82;44.43;100155.09;4900034;29;20048;-73
2023/07/02 14:09:04;;;;;;;23.38;13.70;;;;;;;21.68;43.41;100156.56;4899665;29;20087;-73